sensor_id;sensor_type;location;lat;lon;timestamp;pressure;altitude;pressure_sealevel;temperature;humidity
69836;BME280;57132;51.972;4.450;2023-02-27T00:00:01;102920.81;;;1.51;100.00
69836;BME280;57132;51.972;4.450;2023-02-27T00:02:26;102919.91;;;1.54;100.00
69836;BME280;57132;51.972;4.450;2023-02-27T00:04:51;102926.94;;;1.53;100.00
69836;BME280;57132;51.972;4.450;2023-02-27T00:07:18;102926.03;;;1.54;100.00
69836;BME280;57132;51.972;4.450;2023-02-27T00:09:43;102928.69;;;1.57;100.00
69836;BME280;57132;51.972;4.450;2023-02-27T00:12:09;102929.56;;;1.62;100.00
69836;BME280;57132;51.972;4.450;2023-02-27T00:14:36;102928.69;;;1.65;100.00
69836;BME280;57132;51.972;4.450;2023-02-27T00:17:01;102929.56;;;1.65;100.00
69836;BME280;57132;51.972;4.450;2023-02-27T00:19:26;102931.34;;;1.66;100.00
69836;BME280;57132;51.972;4.450;2023-02-27T00:21:52;102935.72;;;1.64;100.00
69836;BME280;57132;51.972;4.450;2023-02-27T00:24:17;102934.84;;;1.64;100.00
69836;BME280;57132;51.972;4.450;2023-02-27T00:26:43;102925.19;;;1.63;100.00
69836;BME280;57132;51.972;4.450;2023-02-27T00:29:08;102934.84;;;1.64;100.00
69836;BME280;57132;51.972;4.450;2023-02-27T00:31:34;102928.69;;;1.65;100.00
69836;BME280;57132;51.972;4.450;2023-02-27T00:33:59;102926.94;;;1.64;100.00
69836;BME280;57132;51.972;4.450;2023-02-27T00:36:26;102919.03;;;1.62;100.00
69836;BME280;57132;51.972;4.450;2023-02-27T00:38:51;102914.66;;;1.64;100.00
69836;BME280;57132;51.972;4.450;2023-02-27T00:41:17;102915.53;;;1.65;99.76
69836;BME280;57132;51.972;4.450;2023-02-27T00:43:43;102917.28;;;1.64;99.49
69836;BME280;57132;51.972;4.450;2023-02-27T00:46:08;102920.78;;;1.65;99.21
69836;BME280;57132;51.972;4.450;2023-02-27T00:48:34;102918.19;;;1.66;99.19
69836;BME280;57132;51.972;4.450;2023-02-27T00:50:59;102910.25;;;1.65;98.85
69836;BME280;57132;51.972;4.450;2023-02-27T00:53:25;102909.38;;;1.61;99.01
69836;BME280;57132;51.972;4.450;2023-02-27T00:55:50;102915.53;;;1.60;99.18
69836;BME280;57132;51.972;4.450;2023-02-27T00:58:15;102914.63;;;1.58;99.10
69836;BME280;57132;51.972;4.450;2023-02-27T01:00:41;102924.31;;;1.55;99.21
69836;BME280;57132;51.972;4.450;2023-02-27T01:03:06;102918.16;;;1.53;99.29
69836;BME280;57132;51.972;4.450;2023-02-27T01:05:32;102921.66;;;1.50;99.20
69836;BME280;57132;51.972;4.450;2023-02-27T01:07:57;102922.56;;;1.47;99.37
69836;BME280;57132;51.972;4.450;2023-02-27T01:10:22;102915.53;;;1.43;99.32
69836;BME280;57132;51.972;4.450;2023-02-27T01:12:48;102916.38;;;1.42;99.56
69836;BME280;57132;51.972;4.450;2023-02-27T01:15:13;102911.13;;;1.42;98.95
69836;BME280;57132;51.972;4.450;2023-02-27T01:17:38;102916.38;;;1.42;98.82
69836;BME280;57132;51.972;4.450;2023-02-27T01:20:05;102908.50;;;1.38;99.12
69836;BME280;57132;51.972;4.450;2023-02-27T01:22:31;102914.63;;;1.34;99.12
69836;BME280;57132;51.972;4.450;2023-02-27T01:24:57;102912.00;;;1.28;99.45
69836;BME280;57132;51.972;4.450;2023-02-27T01:27:23;102906.75;;;1.23;100.00
69836;BME280;57132;51.972;4.450;2023-02-27T01:29:48;102911.13;;;1.19;99.81
69836;BME280;57132;51.972;4.450;2023-02-27T01:32:13;102907.59;;;1.14;99.96
69836;BME280;57132;51.972;4.450;2023-02-27T01:34:39;102906.72;;;1.09;100.00
69836;BME280;57132;51.972;4.450;2023-02-27T01:37:04;102909.34;;;1.03;100.00
69836;BME280;57132;51.972;4.450;2023-02-27T01:39:30;102900.56;;;0.98;100.00
69836;BME280;57132;51.972;4.450;2023-02-27T01:41:57;102904.94;;;0.93;100.00
69836;BME280;57132;51.972;4.450;2023-02-27T01:44:27;102898.78;;;0.88;100.00
69836;BME280;57132;51.972;4.450;2023-02-27T01:46:53;102894.38;;;0.81;100.00
69836;BME280;57132;51.972;4.450;2023-02-27T01:49:29;102896.13;;;0.76;100.00
69836;BME280;57132;51.972;4.450;2023-02-27T01:52:00;102895.25;;;0.73;100.00
69836;BME280;57132;51.972;4.450;2023-02-27T01:54:32;102899.59;;;0.70;100.00
69836;BME280;57132;51.972;4.450;2023-02-27T01:56:59;102894.34;;;0.65;100.00
69836;BME280;57132;51.972;4.450;2023-02-27T01:59:27;102894.34;;;0.61;100.00
69836;BME280;57132;51.972;4.450;2023-02-27T02:01:54;102897.81;;;0.58;100.00
69836;BME280;57132;51.972;4.450;2023-02-27T02:04:26;102900.44;;;0.52;100.00
69836;BME280;57132;51.972;4.450;2023-02-27T02:06:56;102895.13;;;0.46;100.00
69836;BME280;57132;51.972;4.450;2023-02-27T02:09:24;102894.22;;;0.39;100.00
69836;BME280;57132;51.972;4.450;2023-02-27T02:11:51;102888.09;;;0.37;100.00
69836;BME280;57132;51.972;4.450;2023-02-27T02:14:16;102902.13;;;0.38;100.00
69836;BME280;57132;51.972;4.450;2023-02-27T02:19:34;102908.28;;;0.44;100.00
69836;BME280;57132;51.972;4.450;2023-02-27T02:33:43;102898.53;;;0.22;100.00
69836;BME280;57132;51.972;4.450;2023-02-27T02:39:23;102896.69;;;0.07;100.00
69836;BME280;57132;51.972;4.450;2023-02-27T02:49:51;102909.72;;;-0.08;100.00
69836;BME280;57132;51.972;4.450;2023-02-27T02:57:43;102904.41;;;-0.17;100.00
69836;BME280;57132;51.972;4.450;2023-02-27T03:00:21;102903.50;;;-0.22;100.00
69836;BME280;57132;51.972;4.450;2023-02-27T03:02:55;102900.88;;;-0.27;100.00
69836;BME280;57132;51.972;4.450;2023-02-27T03:05:26;102905.25;;;-0.28;100.00
69836;BME280;57132;51.972;4.450;2023-02-27T03:08:07;102908.72;;;-0.30;100.00
69836;BME280;57132;51.972;4.450;2023-02-27T03:10:41;102902.56;;;-0.35;100.00
69836;BME280;57132;51.972;4.450;2023-02-27T03:13:18;102899.88;;;-0.43;100.00
69836;BME280;57132;51.972;4.450;2023-02-27T03:16:11;102905.06;;;-0.49;100.00
69836;BME280;57132;51.972;4.450;2023-02-27T03:18:46;102906.78;;;-0.54;100.00
69836;BME280;57132;51.972;4.450;2023-02-27T03:21:18;102904.06;;;-0.62;100.00
69836;BME280;57132;51.972;4.450;2023-02-27T03:23:47;102911.84;;;-0.72;100.00
69836;BME280;57132;51.972;4.450;2023-02-27T03:26:19;102910.94;;;-0.79;100.00
69836;BME280;57132;51.972;4.450;2023-02-27T03:29:00;102909.94;;;-0.87;100.00
69836;BME280;57132;51.972;4.450;2023-02-27T03:31:33;102902.81;;;-0.99;100.00
69836;BME280;57132;51.972;4.450;2023-02-27T03:34:10;102905.38;;;-1.08;100.00
69836;BME280;57132;51.972;4.450;2023-02-27T03:36:45;102906.16;;;-1.18;100.00
69836;BME280;57132;51.972;4.450;2023-02-27T03:39:26;102902.53;;;-1.28;100.00
69836;BME280;57132;51.972;4.450;2023-02-27T03:42:07;102917.31;;;-1.33;100.00
69836;BME280;57132;51.972;4.450;2023-02-27T03:45:00;102919.94;;;-1.33;100.00
69836;BME280;57132;51.972;4.450;2023-02-27T03:47:23;102905.94;;;-1.35;100.00
69836;BME280;57132;51.972;4.450;2023-02-27T03:49:50;102908.47;;;-1.43;100.00
69836;BME280;57132;51.972;4.450;2023-02-27T03:52:17;102910.97;;;-1.54;100.00
69836;BME280;57132;51.972;4.450;2023-02-27T03:54:50;102913.47;;;-1.61;100.00
69836;BME280;57132;51.972;4.450;2023-02-27T03:57:18;102913.38;;;-1.69;100.00
69836;BME280;57132;51.972;4.450;2023-02-27T03:59:43;102914.16;;;-1.78;100.00
69836;BME280;57132;51.972;4.450;2023-02-27T04:05:31;102923.34;;;-2.04;100.00
69836;BME280;57132;51.972;4.450;2023-02-27T04:08:36;102914.47;;;-2.15;100.00
69836;BME280;57132;51.972;4.450;2023-02-27T04:11:23;102927.34;;;-2.28;100.00
69836;BME280;57132;51.972;4.450;2023-02-27T04:14:23;102924.63;;;-2.35;100.00
69836;BME280;57132;51.972;4.450;2023-02-27T04:19:49;102921.06;;;-2.39;100.00
69836;BME280;57132;51.972;4.450;2023-02-27T04:22:34;102922.94;;;-2.32;100.00
69836;BME280;57132;51.972;4.450;2023-02-27T04:31:06;102921.31;;;-2.24;100.00
69836;BME280;57132;51.972;4.450;2023-02-27T04:36:27;102933.53;;;-2.23;100.00
69836;BME280;57132;51.972;4.450;2023-02-27T04:39:03;102926.53;;;-2.24;100.00
69836;BME280;57132;51.972;4.450;2023-02-27T04:41:42;102939.63;;;-2.24;100.00
69836;BME280;57132;51.972;4.450;2023-02-27T04:44:10;102936.94;;;-2.27;100.00
69836;BME280;57132;51.972;4.450;2023-02-27T04:46:38;102942.25;;;-2.24;100.00
69836;BME280;57132;51.972;4.450;2023-02-27T04:49:28;102943.88;;;-2.30;100.00
69836;BME280;57132;51.972;4.450;2023-02-27T04:52:00;102945.53;;;-2.37;100.00
69836;BME280;57132;51.972;4.450;2023-02-27T04:54:34;102941.00;;;-2.45;100.00
69836;BME280;57132;51.972;4.450;2023-02-27T04:57:06;102945.19;;;-2.57;100.00
69836;BME280;57132;51.972;4.450;2023-02-27T04:59:42;102948.47;;;-2.67;100.00
69836;BME280;57132;51.972;4.450;2023-02-27T05:02:29;102954.59;;;-2.66;100.00
69836;BME280;57132;51.972;4.450;2023-02-27T05:04:59;102956.34;;;-2.65;100.00
69836;BME280;57132;51.972;4.450;2023-02-27T05:07:31;102954.66;;;-2.63;100.00
69836;BME280;57132;51.972;4.450;2023-02-27T05:10:02;102958.06;;;-2.66;100.00
69836;BME280;57132;51.972;4.450;2023-02-27T05:12:50;102956.34;;;-2.65;100.00
69836;BME280;57132;51.972;4.450;2023-02-27T05:15:34;102966.97;;;-2.56;100.00
69836;BME280;57132;51.972;4.450;2023-02-27T05:18:07;102959.28;;;-2.47;100.00
69836;BME280;57132;51.972;4.450;2023-02-27T05:34:24;102963.38;;;-2.63;100.00
69836;BME280;57132;51.972;4.450;2023-02-27T05:37:04;102970.25;;;-2.68;100.00
69836;BME280;57132;51.972;4.450;2023-02-27T05:39:35;102953.72;;;-2.67;100.00
69836;BME280;57132;51.972;4.450;2023-02-27T05:44:55;102957.91;;;-2.77;100.00
69836;BME280;57132;51.972;4.450;2023-02-27T05:47:25;102962.19;;;-2.79;100.00
69836;BME280;57132;51.972;4.450;2023-02-27T05:49:57;102960.44;;;-2.80;100.00
69836;BME280;57132;51.972;4.450;2023-02-27T05:52:25;102963.06;;;-2.80;100.00
69836;BME280;57132;51.972;4.450;2023-02-27T05:54:58;102963.00;;;-2.83;100.00
69836;BME280;57132;51.972;4.450;2023-02-27T05:57:32;102975.22;;;-2.82;100.00
69836;BME280;57132;51.972;4.450;2023-02-27T06:02:28;102975.25;;;-2.80;100.00
69836;BME280;57132;51.972;4.450;2023-02-27T06:04:54;102975.22;;;-2.82;100.00
69836;BME280;57132;51.972;4.450;2023-02-27T06:07:19;102973.53;;;-2.80;100.00
69836;BME280;57132;51.972;4.450;2023-02-27T06:09:45;102980.56;;;-2.76;100.00
69836;BME280;57132;51.972;4.450;2023-02-27T06:12:11;102983.25;;;-2.71;100.00
69836;BME280;57132;51.972;4.450;2023-02-27T06:14:37;102983.34;;;-2.66;100.00
69836;BME280;57132;51.972;4.450;2023-02-27T06:17:02;102991.16;;;-2.68;100.00
69836;BME280;57132;51.972;4.450;2023-02-27T06:19:27;102983.31;;;-2.68;100.00
69836;BME280;57132;51.972;4.450;2023-02-27T06:21:53;102992.03;;;-2.67;100.00
69836;BME280;57132;51.972;4.450;2023-02-27T06:24:18;102994.72;;;-2.64;100.00
69836;BME280;57132;51.972;4.450;2023-02-27T06:26:43;102993.84;;;-2.63;100.00
69836;BME280;57132;51.972;4.450;2023-02-27T06:29:09;102994.66;;;-2.67;100.00
69836;BME280;57132;51.972;4.450;2023-02-27T06:31:34;103001.56;;;-2.69;100.00
69836;BME280;57132;51.972;4.450;2023-02-27T06:34:00;103004.16;;;-2.73;100.00
69836;BME280;57132;51.972;4.450;2023-02-27T06:36:25;103010.22;;;-2.74;100.00
69836;BME280;57132;51.972;4.450;2023-02-27T06:38:53;103009.41;;;-2.71;100.00
69836;BME280;57132;51.972;4.450;2023-02-27T06:41:18;103021.66;;;-2.68;100.00
69836;BME280;57132;51.972;4.450;2023-02-27T06:43:44;103017.44;;;-2.60;100.00
69836;BME280;57132;51.972;4.450;2023-02-27T06:46:09;103023.75;;;-2.49;100.00
69836;BME280;57132;51.972;4.450;2023-02-27T06:48:36;103023.03;;;-2.40;100.00
69836;BME280;57132;51.972;4.450;2023-02-27T06:51:02;103020.50;;;-2.37;100.00
69836;BME280;57132;51.972;4.450;2023-02-27T06:53:28;103025.66;;;-2.39;100.00
69836;BME280;57132;51.972;4.450;2023-02-27T06:55:53;103032.63;;;-2.39;100.00
69836;BME280;57132;51.972;4.450;2023-02-27T06:58:18;103036.13;;;-2.39;100.00
69836;BME280;57132;51.972;4.450;2023-02-27T07:00:44;103030.97;;;-2.36;100.00
69836;BME280;57132;51.972;4.450;2023-02-27T07:03:11;103038.06;;;-2.29;100.00
69836;BME280;57132;51.972;4.450;2023-02-27T07:05:37;103039.09;;;-2.20;100.00
69836;BME280;57132;51.972;4.450;2023-02-27T07:08:02;103044.59;;;-2.05;100.00
69836;BME280;57132;51.972;4.450;2023-02-27T07:10:28;103050.09;;;-1.87;100.00
69836;BME280;57132;51.972;4.450;2023-02-27T07:12:53;103045.22;;;-1.65;100.00
69836;BME280;57132;51.972;4.450;2023-02-27T07:15:19;103052.50;;;-1.46;100.00
69836;BME280;57132;51.972;4.450;2023-02-27T07:17:45;103054.53;;;-1.25;100.00
69836;BME280;57132;51.972;4.450;2023-02-27T07:20:10;103051.25;;;-1.07;100.00
69836;BME280;57132;51.972;4.450;2023-02-27T07:22:37;103049.75;;;-0.90;100.00
69836;BME280;57132;51.972;4.450;2023-02-27T07:25:03;103053.34;;;-0.80;100.00
69836;BME280;57132;51.972;4.450;2023-02-27T07:27:29;103050.84;;;-0.71;100.00
69836;BME280;57132;51.972;4.450;2023-02-27T07:29:55;103059.69;;;-0.61;100.00
69836;BME280;57132;51.972;4.450;2023-02-27T07:32:21;103061.59;;;-0.46;100.00
69836;BME280;57132;51.972;4.450;2023-02-27T07:34:46;103058.28;;;-0.30;100.00
69836;BME280;57132;51.972;4.450;2023-02-27T07:37:12;103060.97;;;-0.21;100.00
69836;BME280;57132;51.972;4.450;2023-02-27T07:39:37;103058.44;;;-0.15;100.00
69836;BME280;57132;51.972;4.450;2023-02-27T07:42:03;103056.75;;;-0.07;100.00
69836;BME280;57132;51.972;4.450;2023-02-27T07:44:29;103058.56;;;0.04;100.00
69836;BME280;57132;51.972;4.450;2023-02-27T07:46:54;103062.16;;;0.15;100.00
69836;BME280;57132;51.972;4.450;2023-02-27T07:49:20;103062.25;;;0.27;100.00
69836;BME280;57132;51.972;4.450;2023-02-27T07:51:45;103061.47;;;0.36;100.00
69836;BME280;57132;51.972;4.450;2023-02-27T07:54:11;103067.66;;;0.47;100.00
69836;BME280;57132;51.972;4.450;2023-02-27T07:56:36;103059.00;;;0.56;100.00
69836;BME280;57132;51.972;4.450;2023-02-27T07:59:01;103057.28;;;0.65;100.00
69836;BME280;57132;51.972;4.450;2023-02-27T08:01:27;103058.19;;;0.73;100.00
69836;BME280;57132;51.972;4.450;2023-02-27T08:03:52;103052.09;;;0.82;100.00
69836;BME280;57132;51.972;4.450;2023-02-27T08:06:18;103056.56;;;0.94;100.00
69836;BME280;57132;51.972;4.450;2023-02-27T08:08:43;103056.63;;;1.03;100.00
69836;BME280;57132;51.972;4.450;2023-02-27T08:11:10;103061.94;;;1.15;100.00
69836;BME280;57132;51.972;4.450;2023-02-27T08:13:35;103063.69;;;1.26;100.00
69836;BME280;57132;51.972;4.450;2023-02-27T08:16:00;103057.59;;;1.36;100.00
69836;BME280;57132;51.972;4.450;2023-02-27T08:18:26;103073.41;;;1.45;100.00
69836;BME280;57132;51.972;4.450;2023-02-27T08:20:54;103071.69;;;1.53;100.00
69836;BME280;57132;51.972;4.450;2023-02-27T08:23:19;103065.56;;;1.63;100.00
69836;BME280;57132;51.972;4.450;2023-02-27T08:25:45;103074.34;;;1.73;100.00
69836;BME280;57132;51.972;4.450;2023-02-27T08:28:11;103076.16;;;1.83;100.00
69836;BME280;57132;51.972;4.450;2023-02-27T08:30:36;103075.25;;;1.93;100.00
69836;BME280;57132;51.972;4.450;2023-02-27T08:33:02;103077.91;;;2.03;100.00
69836;BME280;57132;51.972;4.450;2023-02-27T08:35:27;103079.69;;;2.14;100.00
69836;BME280;57132;51.972;4.450;2023-02-27T08:37:52;103080.53;;;2.26;100.00
69836;BME280;57132;51.972;4.450;2023-02-27T08:40:18;103081.41;;;2.37;100.00
69836;BME280;57132;51.972;4.450;2023-02-27T08:42:43;103088.47;;;2.45;100.00
69836;BME280;57132;51.972;4.450;2023-02-27T08:45:09;103092.84;;;2.54;100.00
69836;BME280;57132;51.972;4.450;2023-02-27T08:47:35;103083.19;;;2.58;100.00
69836;BME280;57132;51.972;4.450;2023-02-27T08:50:01;103091.94;;;2.67;100.00
69836;BME280;57132;51.972;4.450;2023-02-27T08:52:27;103096.34;;;2.70;100.00
69836;BME280;57132;51.972;4.450;2023-02-27T08:54:52;103099.81;;;2.80;100.00
69836;BME280;57132;51.972;4.450;2023-02-27T08:57:17;103095.41;;;2.89;100.00
69836;BME280;57132;51.972;4.450;2023-02-27T08:59:43;103103.28;;;2.99;100.00
69836;BME280;57132;51.972;4.450;2023-02-27T09:02:09;103098.88;;;3.07;100.00
69836;BME280;57132;51.972;4.450;2023-02-27T09:04:36;103098.84;;;3.17;99.91
69836;BME280;57132;51.972;4.450;2023-02-27T09:07:01;103097.94;;;3.23;97.96
69836;BME280;57132;51.972;4.450;2023-02-27T09:09:27;103101.41;;;3.37;97.55
69836;BME280;57132;51.972;4.450;2023-02-27T09:11:52;103103.94;;;3.54;97.48
69836;BME280;57132;51.972;4.450;2023-02-27T09:14:18;103104.81;;;3.61;97.07
69836;BME280;57132;51.972;4.450;2023-02-27T09:16:44;103103.88;;;3.63;95.75
69836;BME280;57132;51.972;4.450;2023-02-27T09:19:10;103110.03;;;3.68;95.00
69836;BME280;57132;51.972;4.450;2023-02-27T09:21:35;103103.84;;;3.74;95.47
69836;BME280;57132;51.972;4.450;2023-02-27T09:24:05;103107.28;;;3.84;95.12
69836;BME280;57132;51.972;4.450;2023-02-27T09:26:31;103115.22;;;3.85;95.00
69836;BME280;57132;51.972;4.450;2023-02-27T09:28:56;103113.41;;;3.93;94.96
69836;BME280;57132;51.972;4.450;2023-02-27T09:31:22;103116.81;;;4.08;95.73
69836;BME280;57132;51.972;4.450;2023-02-27T09:33:47;103117.63;;;4.19;94.82
69836;BME280;57132;51.972;4.450;2023-02-27T09:36:13;103120.16;;;4.33;93.50
69836;BME280;57132;51.972;4.450;2023-02-27T09:38:38;103115.59;;;4.52;93.21
69836;BME280;57132;51.972;4.450;2023-02-27T09:41:05;103116.72;;;5.12;91.20
69836;BME280;57132;51.972;4.450;2023-02-27T09:43:47;103119.88;;;7.10;84.90
69836;BME280;57132;51.972;4.450;2023-02-27T09:46:18;103110.44;;;9.49;67.39
69836;BME280;57132;51.972;4.450;2023-02-27T09:48:48;103125.00;;;12.18;54.03
69836;BME280;57132;51.972;4.450;2023-02-27T09:51:15;103129.75;;;13.73;46.10
69836;BME280;57132;51.972;4.450;2023-02-27T09:53:43;103126.25;;;14.97;42.79
69836;BME280;57132;51.972;4.450;2023-02-27T09:56:22;103132.69;;;15.93;39.30
69836;BME280;57132;51.972;4.450;2023-02-27T09:59:50;103129.88;;;16.26;38.09
69836;BME280;57132;51.972;4.450;2023-02-27T10:02:54;103122.84;;;16.54;37.55
69836;BME280;57132;51.972;4.450;2023-02-27T10:15:58;103127.94;;;17.18;34.50
69836;BME280;57132;51.972;4.450;2023-02-27T10:18:28;103125.94;;;16.62;35.14
69836;BME280;57132;51.972;4.450;2023-02-27T10:20:55;103131.19;;;17.09;33.95
69836;BME280;57132;51.972;4.450;2023-02-27T10:23:35;103127.88;;;16.90;34.13
69836;BME280;57132;51.972;4.450;2023-02-27T10:26:03;103136.31;;;17.28;33.27
69836;BME280;57132;51.972;4.450;2023-02-27T10:28:30;103125.50;;;17.57;33.28
69836;BME280;57132;51.972;4.450;2023-02-27T10:30:58;103124.53;;;17.43;32.41
69836;BME280;57132;51.972;4.450;2023-02-27T10:33:32;103128.75;;;17.62;31.30
69836;BME280;57132;51.972;4.450;2023-02-27T10:35:58;103127.25;;;17.29;32.12
69836;BME280;57132;51.972;4.450;2023-02-27T10:38:38;103124.56;;;17.15;31.55
69836;BME280;57132;51.972;4.450;2023-02-27T10:41:05;103119.31;;;16.83;32.43
69836;BME280;57132;51.972;4.450;2023-02-27T10:43:31;103122.31;;;16.93;32.68
69836;BME280;57132;51.972;4.450;2023-02-27T10:46:12;103123.56;;;17.59;32.57
69836;BME280;57132;51.972;4.450;2023-02-27T10:48:39;103123.88;;;17.26;32.20
69836;BME280;57132;51.972;4.450;2023-02-27T10:51:25;103117.41;;;17.42;31.43
69836;BME280;57132;51.972;4.450;2023-02-27T10:54:12;103114.09;;;16.94;30.68
69836;BME280;57132;51.972;4.450;2023-02-27T10:56:39;103116.88;;;14.54;34.71
69836;BME280;57132;51.972;4.450;2023-02-27T10:59:09;103112.06;;;13.50;36.45
69836;BME280;57132;51.972;4.450;2023-02-27T11:01:51;103115.19;;;13.21;37.58
69836;BME280;57132;51.972;4.450;2023-02-27T11:04:51;103108.88;;;13.42;36.67
69836;BME280;57132;51.972;4.450;2023-02-27T11:07:26;103112.69;;;12.35;37.12
69836;BME280;57132;51.972;4.450;2023-02-27T11:12:39;103101.47;;;13.28;35.49
69836;BME280;57132;51.972;4.450;2023-02-27T11:15:33;103092.97;;;12.78;36.60
69836;BME280;57132;51.972;4.450;2023-02-27T11:18:28;103097.97;;;14.02;33.53
69836;BME280;57132;51.972;4.450;2023-02-27T11:21:25;103101.09;;;14.46;32.77
69836;BME280;57132;51.972;4.450;2023-02-27T11:24:01;103088.41;;;15.00;32.97
69836;BME280;57132;51.972;4.450;2023-02-27T11:26:34;103082.72;;;14.02;32.88
69836;BME280;57132;51.972;4.450;2023-02-27T11:31:45;103078.28;;;13.46;32.76
69836;BME280;57132;51.972;4.450;2023-02-27T11:34:18;103077.66;;;13.77;33.94
69836;BME280;57132;51.972;4.450;2023-02-27T11:36:47;103077.69;;;14.14;32.94
69836;BME280;57132;51.972;4.450;2023-02-27T11:41:47;103071.41;;;13.20;32.89
69836;BME280;57132;51.972;4.450;2023-02-27T11:44:17;103063.84;;;12.07;36.39
69836;BME280;57132;51.972;4.450;2023-02-27T11:46:42;103061.03;;;12.53;36.82
69836;BME280;57132;51.972;4.450;2023-02-27T11:49:56;103063.53;;;12.97;33.79
69836;BME280;57132;51.972;4.450;2023-02-27T11:52:02;103058.97;;;12.60;35.16
69836;BME280;57132;51.972;4.450;2023-02-27T11:54:59;103051.78;;;11.06;38.27
69836;BME280;57132;51.972;4.450;2023-02-27T11:57:40;103052.75;;;10.02;38.59
69836;BME280;57132;51.972;4.450;2023-02-27T12:00:20;103052.44;;;10.12;39.49
69836;BME280;57132;51.972;4.450;2023-02-27T12:05:44;103036.00;;;11.46;39.98
69836;BME280;57132;51.972;4.450;2023-02-27T12:14:02;103039.00;;;11.82;35.98
69836;BME280;57132;51.972;4.450;2023-02-27T12:19:29;103033.19;;;9.18;40.79
69836;BME280;57132;51.972;4.450;2023-02-27T12:22:02;103026.19;;;8.84;43.39
69836;BME280;57132;51.972;4.450;2023-02-27T12:24:56;103022.59;;;8.85;41.91
69836;BME280;57132;51.972;4.450;2023-02-27T12:27:50;103023.69;;;8.78;43.66
69836;BME280;57132;51.972;4.450;2023-02-27T12:30:20;103031.66;;;8.78;43.02
69836;BME280;57132;51.972;4.450;2023-02-27T12:35:33;103031.88;;;7.66;44.87
69836;BME280;57132;51.972;4.450;2023-02-27T12:37:58;103025.06;;;7.14;45.96
69836;BME280;57132;51.972;4.450;2023-02-27T12:40:43;103019.22;;;6.98;46.67
69836;BME280;57132;51.972;4.450;2023-02-27T12:46:30;103011.59;;;6.81;46.98
69836;BME280;57132;51.972;4.450;2023-02-27T12:51:55;103016.34;;;6.65;47.79
69836;BME280;57132;51.972;4.450;2023-02-27T12:54:34;103008.38;;;6.65;48.45
69836;BME280;57132;51.972;4.450;2023-02-27T13:02:24;103016.13;;;7.18;47.69
69836;BME280;57132;51.972;4.450;2023-02-27T13:05:15;103014.19;;;7.26;48.72
69836;BME280;57132;51.972;4.450;2023-02-27T13:10:21;103015.06;;;7.66;46.50
69836;BME280;57132;51.972;4.450;2023-02-27T13:12:55;103017.47;;;7.76;45.72
69836;BME280;57132;51.972;4.450;2023-02-27T13:18:29;103004.34;;;8.04;45.96
69836;BME280;57132;51.972;4.450;2023-02-27T13:26:06;103006.75;;;7.00;45.90
69836;BME280;57132;51.972;4.450;2023-02-27T13:28:35;103009.69;;;6.88;47.62
69836;BME280;57132;51.972;4.450;2023-02-27T13:31:07;103000.84;;;7.28;47.65
69836;BME280;57132;51.972;4.450;2023-02-27T13:33:42;103004.13;;;7.41;46.29
69836;BME280;57132;51.972;4.450;2023-02-27T13:36:30;103002.50;;;7.72;45.41
69836;BME280;57132;51.972;4.450;2023-02-27T13:38:57;102994.13;;;7.87;46.68
69836;BME280;57132;51.972;4.450;2023-02-27T13:43:55;103003.31;;;7.37;46.35
69836;BME280;57132;51.972;4.450;2023-02-27T13:46:33;103003.69;;;7.20;46.57
69836;BME280;57132;51.972;4.450;2023-02-27T13:59:32;102999.59;;;8.16;45.04
69836;BME280;57132;51.972;4.450;2023-02-27T14:02:01;102991.56;;;8.53;45.87
69836;BME280;57132;51.972;4.450;2023-02-27T14:04:32;102994.28;;;9.12;44.54
69836;BME280;57132;51.972;4.450;2023-02-27T14:07:02;102990.28;;;8.97;44.74
69836;BME280;57132;51.972;4.450;2023-02-27T14:09:35;102998.16;;;8.04;46.93
69836;BME280;57132;51.972;4.450;2023-02-27T14:12:04;102998.06;;;7.73;47.86
69836;BME280;57132;51.972;4.450;2023-02-27T14:14:42;102998.19;;;7.29;48.78
69836;BME280;57132;51.972;4.450;2023-02-27T14:17:12;103008.28;;;6.69;49.74
69836;BME280;57132;51.972;4.450;2023-02-27T14:27:18;103000.44;;;6.64;52.37
69836;BME280;57132;51.972;4.450;2023-02-27T14:29:47;103002.56;;;6.90;51.39
69836;BME280;57132;51.972;4.450;2023-02-27T14:32:21;103004.81;;;6.67;51.23
69836;BME280;57132;51.972;4.450;2023-02-27T14:34:48;103006.13;;;6.44;51.93
69836;BME280;57132;51.972;4.450;2023-02-27T14:37:20;103010.78;;;6.31;53.03
69836;BME280;57132;51.972;4.450;2023-02-27T14:39:51;103003.81;;;6.26;54.40
69836;BME280;57132;51.972;4.450;2023-02-27T14:45:21;102992.84;;;5.96;55.50
69836;BME280;57132;51.972;4.450;2023-02-27T14:47:48;102995.69;;;5.82;55.45
69836;BME280;57132;51.972;4.450;2023-02-27T14:50:27;102999.09;;;5.89;56.67
69836;BME280;57132;51.972;4.450;2023-02-27T14:52:56;103000.09;;;6.36;57.35
69836;BME280;57132;51.972;4.450;2023-02-27T14:55:27;102996.75;;;6.71;55.39
69836;BME280;57132;51.972;4.450;2023-02-27T14:58:07;102993.31;;;6.66;55.70
69836;BME280;57132;51.972;4.450;2023-02-27T15:00:40;102996.50;;;6.37;55.57
69836;BME280;57132;51.972;4.450;2023-02-27T15:03:23;102998.63;;;6.20;57.12
69836;BME280;57132;51.972;4.450;2023-02-27T15:05:51;102988.19;;;6.10;58.43
69836;BME280;57132;51.972;4.450;2023-02-27T15:08:24;102989.22;;;6.00;59.17
69836;BME280;57132;51.972;4.450;2023-02-27T15:10:53;102988.41;;;5.98;60.07
69836;BME280;57132;51.972;4.450;2023-02-27T15:13:39;102991.28;;;5.83;61.92
69836;BME280;57132;51.972;4.450;2023-02-27T15:21:38;102983.19;;;5.92;65.04
69836;BME280;57132;51.972;4.450;2023-02-27T15:24:05;102987.22;;;6.14;62.45
69836;BME280;57132;51.972;4.450;2023-02-27T15:26:38;102983.56;;;6.22;62.75
69836;BME280;57132;51.972;4.450;2023-02-27T15:29:07;102989.75;;;6.21;62.06
69836;BME280;57132;51.972;4.450;2023-02-27T15:31:33;102989.84;;;6.16;62.63
69836;BME280;57132;51.972;4.450;2023-02-27T15:34:00;102987.38;;;6.05;62.39
69836;BME280;57132;51.972;4.450;2023-02-27T15:36:29;102992.63;;;6.08;65.31